Time;durP1;ratioP1;P1;durP2;ratioP2;P2;SDS_P1;SDS_P2;PMS_P1;PMS_P2;Temp;Humidity;BMP_temperature;BMP_pressure;BME280_temperature;BME280_humidity;BME280_pressure;Samples;Min_cycle;Max_cycle;Signal;HPM_P1;HPM_P2
2021/12/25 00:00:44;;;;;;;2.00;0.57;;;-4.70;99.90;;;;;;5141482;28;20535;-49
2021/12/25 00:03:16;;;;;;;2.33;1.07;;;-4.80;99.90;;;;;;5138998;28;20302;-50
2021/12/25 00:05:52;;;;;;;2.40;1.57;;;-4.70;99.90;;;;;;5142977;28;20221;-51
2021/12/25 00:08:26;;;;;;;6.07;0.60;;;-4.80;99.90;;;;;;5149464;28;20467;-49
2021/12/25 00:11:01;;;;;;;1.33;0.80;;;-4.80;99.90;;;;;;5125561;28;20462;-48
2021/12/25 00:13:32;;;;;;;0.87;0.87;;;-4.90;99.90;;;;;;5123523;28;20444;-50
2021/12/25 00:16:02;;;;;;;0.53;0.53;;;-4.90;99.90;;;;;;5121042;28;20441;-49
2021/12/25 00:18:38;;;;;;;0.53;0.53;;;-4.90;99.90;;;;;;5140966;28;20236;-51
2021/12/25 00:21:09;;;;;;;1.43;0.80;;;-4.90;99.90;;;;;;5144477;28;20736;-49
2021/12/25 00:23:40;;;;;;;2.53;1.20;;;-5.00;99.90;;;;;;5124427;28;20468;-48
2021/12/25 00:26:24;;;;;;;0.97;0.80;;;-4.90;99.90;;;;;;5139200;28;20451;-50
2021/12/25 00:29:03;;;;;;;0.60;0.60;;;-5.00;99.90;;;;;;5141992;28;20181;-50
2021/12/25 00:31:57;;;;;;;0.50;0.50;;;-5.00;99.90;;;;;;5142000;28;20445;-50
2021/12/25 00:34:28;;;;;;;0.90;0.80;;;-5.00;99.90;;;;;;5141279;28;20472;-50
2021/12/25 00:36:58;;;;;;;0.90;0.90;;;-5.00;99.90;;;;;;5134133;28;20541;-50
2021/12/25 00:39:29;;;;;;;1.17;0.40;;;-5.00;99.90;;;;;;5124528;28;20181;-50
2021/12/25 00:42:01;;;;;;;0.60;0.60;;;-5.00;99.90;;;;;;5125174;28;20285;-49
2021/12/25 00:44:33;;;;;;;0.50;0.50;;;-5.00;99.90;;;;;;5138220;28;21028;-49
2021/12/25 00:47:05;;;;;;;2.77;1.10;;;-5.00;99.90;;;;;;5134612;28;20467;-51
2021/12/25 00:49:35;;;;;;;0.63;0.63;;;-5.00;99.90;;;;;;5141435;28;20444;-49
2021/12/25 00:52:06;;;;;;;6.70;1.17;;;-5.00;99.90;;;;;;5121695;28;20459;-49
2021/12/25 00:54:37;;;;;;;1.07;1.07;;;-4.90;99.90;;;;;;5141837;28;20190;-50
2021/12/25 00:57:07;;;;;;;1.03;1.00;;;-4.90;99.90;;;;;;5148928;28;20213;-50
2021/12/25 00:59:38;;;;;;;6.10;1.23;;;-4.90;99.90;;;;;;5141911;28;20186;-49
2021/12/25 01:02:09;;;;;;;0.90;0.90;;;-4.90;99.90;;;;;;5117142;28;20564;-50
2021/12/25 01:04:40;;;;;;;0.63;0.63;;;-5.00;99.90;;;;;;5126275;28;20192;-49
2021/12/25 01:07:10;;;;;;;0.67;0.67;;;-5.00;99.90;;;;;;5138067;28;20681;-49
2021/12/25 01:09:41;;;;;;;1.43;1.07;;;-5.00;99.90;;;;;;5119715;28;20441;-51
2021/12/25 01:12:11;;;;;;;2.00;1.17;;;-5.00;99.90;;;;;;5129633;28;20200;-51
2021/12/25 01:14:49;;;;;;;3.30;0.80;;;-5.00;99.90;;;;;;5140400;28;20186;-49
2021/12/25 01:17:56;;;;;;;0.53;0.53;;;-5.10;99.90;;;;;;5135727;28;20209;-49
2021/12/25 01:20:40;;;;;;;2.37;0.77;;;-5.10;99.90;;;;;;5138480;28;20579;-50
2021/12/25 01:23:46;;;;;;;1.03;0.80;;;-5.20;99.90;;;;;;5144521;28;20963;-49
2021/12/25 01:26:43;;;;;;;1.47;0.80;;;-5.20;99.90;;;;;;5135739;28;20440;-50
2021/12/25 01:31:52;;;;;;;1.53;0.80;;;-5.30;99.90;;;;;;5140888;28;20441;-50
2021/12/25 01:34:57;;;;;;;0.90;0.90;;;-5.30;99.90;;;;;;5123745;28;20220;-49
2021/12/25 01:48:22;;;;;;;1.17;0.70;;;-5.30;99.90;;;;;;5122168;28;20449;-50
2021/12/25 01:50:54;;;;;;;1.63;1.10;;;-5.30;99.90;;;;;;5103101;29;20431;-50
2021/12/25 01:53:24;;;;;;;0.50;0.50;;;-5.30;99.90;;;;;;5120936;28;20466;-50
2021/12/25 01:55:57;;;;;;;0.50;0.50;;;-5.30;99.90;;;;;;5107067;29;20489;-49
2021/12/25 01:58:27;;;;;;;0.97;0.67;;;-5.40;99.90;;;;;;5111006;29;20292;-49
2021/12/25 02:00:59;;;;;;;0.97;0.90;;;-5.40;99.90;;;;;;5116288;29;20476;-49
2021/12/25 02:03:30;;;;;;;0.90;0.90;;;-5.40;99.90;;;;;;5131569;29;20206;-49
2021/12/25 02:06:01;;;;;;;0.80;0.60;;;-5.50;99.90;;;;;;5135016;28;20480;-49
2021/12/25 02:08:32;;;;;;;2.23;0.50;;;-5.40;99.90;;;;;;5128146;28;20455;-50
2021/12/25 02:11:04;;;;;;;0.50;0.50;;;-5.40;99.90;;;;;;5128275;28;20184;-49
2021/12/25 02:13:34;;;;;;;0.90;0.70;;;-5.50;99.90;;;;;;5122321;28;20941;-50
2021/12/25 02:16:11;;;;;;;1.13;1.03;;;-5.50;99.90;;;;;;5117846;28;20448;-50
2021/12/25 02:19:02;;;;;;;0.83;0.63;;;-5.50;99.90;;;;;;5106252;29;20697;-48
2021/12/25 02:21:38;;;;;;;1.37;0.87;;;-5.60;99.90;;;;;;5119275;28;20957;-50
2021/12/25 02:24:11;;;;;;;0.73;0.60;;;-5.60;99.90;;;;;;5123538;28;20517;-49
2021/12/25 02:26:44;;;;;;;0.80;0.80;;;-5.60;99.90;;;;;;5123467;28;20465;-49
2021/12/25 02:29:14;;;;;;;1.50;1.50;;;-5.60;99.90;;;;;;5120522;29;20445;-50
2021/12/25 02:31:45;;;;;;;0.73;0.73;;;-5.60;99.90;;;;;;5100568;29;20438;-50
2021/12/25 02:34:16;;;;;;;0.87;0.87;;;-5.60;99.90;;;;;;5119428;29;20191;-49
2021/12/25 02:36:46;;;;;;;0.60;0.60;;;-5.60;99.90;;;;;;5119930;28;20304;-50
2021/12/25 02:39:17;;;;;;;0.70;0.70;;;-5.60;99.90;;;;;;5120139;28;20539;-50
2021/12/25 02:41:47;;;;;;;0.97;0.70;;;-5.60;99.90;;;;;;5122098;28;20639;-50
2021/12/25 02:44:18;;;;;;;3.63;0.67;;;-5.60;99.90;;;;;;5117809;28;20183;-49
2021/12/25 02:46:53;;;;;;;2.60;1.13;;;-5.60;99.90;;;;;;5103065;28;20201;-48
2021/12/25 02:49:24;;;;;;;0.50;0.50;;;-5.60;99.90;;;;;;5118485;28;20267;-50
2021/12/25 02:51:55;;;;;;;0.53;0.53;;;-5.60;99.90;;;;;;5117280;28;20598;-49
2021/12/25 02:54:25;;;;;;;0.73;0.73;;;-5.60;99.90;;;;;;5120529;28;20557;-49
2021/12/25 02:56:56;;;;;;;1.00;1.00;;;-5.60;99.90;;;;;;5119887;28;20348;-49
2021/12/25 02:59:26;;;;;;;1.03;0.93;;;-5.50;99.90;;;;;;5106687;29;20241;-51
2021/12/25 03:02:04;;;;;;;1.80;1.20;;;-5.50;99.90;;;;;;5121519;28;20221;-49
2021/12/25 03:04:39;;;;;;;1.00;1.00;;;-5.60;99.90;;;;;;5123742;28;20182;-50
2021/12/25 03:07:10;;;;;;;1.23;0.87;;;-5.60;99.90;;;;;;5117846;28;20464;-49
2021/12/25 03:09:42;;;;;;;2.63;1.10;;;-5.60;99.90;;;;;;5123468;29;20934;-49
2021/12/25 03:12:14;;;;;;;1.23;0.90;;;-5.60;99.90;;;;;;5118348;29;20453;-49
2021/12/25 03:15:14;;;;;;;2.07;1.03;;;-5.60;99.90;;;;;;5105526;29;20942;-49
2021/12/25 03:17:46;;;;;;;0.53;0.53;;;-5.60;99.90;;;;;;5119985;28;20514;-49
2021/12/25 03:20:16;;;;;;;0.63;0.63;;;-5.70;99.90;;;;;;5117735;28;20437;-49
2021/12/25 03:22:47;;;;;;;0.97;0.63;;;-5.70;99.90;;;;;;5120346;28;20465;-50
2021/12/25 03:25:18;;;;;;;1.47;0.70;;;-5.70;99.90;;;;;;5119497;28;20183;-49
2021/12/25 03:27:49;;;;;;;0.87;0.53;;;-5.70;99.90;;;;;;5116662;28;20207;-49
2021/12/25 03:30:22;;;;;;;1.93;0.70;;;-5.70;99.90;;;;;;5114497;29;20182;-49
2021/12/25 03:32:52;;;;;;;0.93;0.77;;;-5.70;99.90;;;;;;5119888;28;20449;-49
2021/12/25 03:35:23;;;;;;;1.60;0.60;;;-5.70;99.90;;;;;;5116163;28;20588;-49
2021/12/25 03:37:53;;;;;;;0.40;0.40;;;-5.70;99.90;;;;;;5104899;28;20220;-49
2021/12/25 03:40:24;;;;;;;0.70;0.70;;;-5.70;99.90;;;;;;5122637;29;20196;-49
2021/12/25 03:42:54;;;;;;;1.33;0.60;;;-5.70;99.90;;;;;;5120978;28;20237;-49
2021/12/25 03:45:28;;;;;;;0.80;0.80;;;-5.70;99.90;;;;;;5104815;28;20654;-50
2021/12/25 03:48:31;;;;;;;0.80;0.77;;;-5.70;99.90;;;;;;5117923;28;20211;-49
2021/12/25 03:59:14;;;;;;;1.07;0.90;;;-5.60;99.90;;;;;;5114609;28;20191;-49
2021/12/25 04:01:54;;;;;;;1.63;1.10;;;-5.50;99.90;;;;;;5094083;29;20437;-49
2021/12/25 04:04:33;;;;;;;1.33;0.70;;;-5.60;99.90;;;;;;5121136;28;20445;-48
2021/12/25 04:09:35;;;;;;;1.20;1.20;;;-5.60;99.90;;;;;;5121007;28;20453;-51
2021/12/25 04:12:11;;;;;;;0.87;0.73;;;-5.60;99.90;;;;;;5119441;28;20532;-48
2021/12/25 04:14:42;;;;;;;0.80;0.80;;;-5.60;99.90;;;;;;5097662;28;20989;-49
2021/12/25 04:17:12;;;;;;;0.60;0.60;;;-5.70;99.90;;;;;;5115736;28;20557;-49
2021/12/25 04:19:43;;;;;;;0.80;0.80;;;-5.70;99.90;;;;;;5116074;29;20249;-48
2021/12/25 04:22:23;;;;;;;2.73;0.60;;;-5.80;99.90;;;;;;5117766;29;20253;-48
2021/12/25 04:24:54;;;;;;;0.60;0.60;;;-5.80;99.90;;;;;;5109580;28;20260;-49
2021/12/25 04:27:25;;;;;;;0.87;0.57;;;-5.80;99.90;;;;;;5121721;28;20537;-49
2021/12/25 04:30:03;;;;;;;0.70;0.70;;;-5.80;99.90;;;;;;5111066;28;20587;-48
2021/12/25 04:50:06;;;;;;;3.77;0.93;;;-5.70;99.90;;;;;;5121843;28;20854;-50
2021/12/25 05:03:50;;;;;;;0.40;0.40;;;-5.90;99.90;;;;;;5115365;28;21045;-49
2021/12/25 05:06:23;;;;;;;2.10;0.80;;;-5.90;99.90;;;;;;5118949;28;20435;-49
2021/12/25 05:08:55;;;;;;;0.57;0.57;;;-5.90;99.90;;;;;;5114086;29;20438;-49
2021/12/25 05:11:25;;;;;;;0.50;0.50;;;-5.90;99.90;;;;;;5115287;28;20533;-49
2021/12/25 05:13:56;;;;;;;1.90;0.90;;;-5.90;99.90;;;;;;5124211;28;20964;-49
2021/12/25 05:16:26;;;;;;;3.43;0.97;;;-5.90;99.90;;;;;;5122957;29;20196;-49
2021/12/25 05:18:57;;;;;;;1.17;1.07;;;-5.90;99.90;;;;;;5124658;28;20233;-48
2021/12/25 05:21:27;;;;;;;1.50;0.87;;;-5.90;99.90;;;;;;5120482;28;20198;-48
2021/12/25 05:23:59;;;;;;;1.90;0.90;;;-5.90;99.90;;;;;;5113447;29;20201;-48
2021/12/25 05:26:30;;;;;;;4.47;0.93;;;-5.90;99.90;;;;;;5123253;28;20179;-49
2021/12/25 05:29:01;;;;;;;0.70;0.70;;;-6.00;99.90;;;;;;5119000;28;20437;-48
2021/12/25 05:31:34;;;;;;;0.97;0.80;;;-6.00;99.90;;;;;;5121382;28;20201;-49
2021/12/25 05:34:05;;;;;;;1.40;0.80;;;-6.00;99.90;;;;;;5120159;28;20530;-49
2021/12/25 05:36:35;;;;;;;1.00;0.70;;;-6.10;99.90;;;;;;5103643;29;20438;-51
2021/12/25 05:39:09;;;;;;;1.47;0.60;;;-6.10;99.90;;;;;;5108551;29;20187;-49
2021/12/25 05:41:40;;;;;;;0.80;0.80;;;-6.10;99.90;;;;;;5117065;28;20548;-49
2021/12/25 05:44:10;;;;;;;1.43;0.70;;;-6.10;99.90;;;;;;5125242;28;20441;-49
2021/12/25 05:46:41;;;;;;;0.60;0.60;;;-6.10;99.90;;;;;;5121708;29;20356;-49
2021/12/25 05:49:11;;;;;;;6.33;0.80;;;-6.10;99.90;;;;;;5122704;28;20552;-48
2021/12/25 05:51:42;;;;;;;2.17;0.90;;;-6.10;99.90;;;;;;5121800;28;20182;-48
2021/12/25 05:54:13;;;;;;;0.60;0.60;;;-6.10;99.90;;;;;;5126542;29;20186;-49
2021/12/25 05:56:43;;;;;;;2.23;0.83;;;-6.20;99.90;;;;;;5109009;28;20213;-50
2021/12/25 05:59:14;;;;;;;1.10;1.10;;;-6.20;99.90;;;;;;5120202;29;20186;-49
2021/12/25 06:01:44;;;;;;;2.17;1.00;;;-6.20;99.90;;;;;;5122334;28;20238;-49
2021/12/25 06:04:15;;;;;;;0.80;0.80;;;-6.20;99.90;;;;;;5125650;28;20186;-49
2021/12/25 06:06:45;;;;;;;1.70;1.37;;;-6.20;99.90;;;;;;5125934;28;20231;-49
2021/12/25 06:09:17;;;;;;;1.60;0.90;;;-6.20;99.90;;;;;;5126214;28;20174;-49
2021/12/25 06:11:48;;;;;;;0.43;0.43;;;-6.20;99.90;;;;;;5120707;29;21567;-48
2021/12/25 06:14:22;;;;;;;1.70;1.60;;;-6.20;99.90;;;;;;5126322;28;20422;-48
2021/12/25 06:16:52;;;;;;;2.83;0.60;;;-6.30;99.90;;;;;;5109289;29;20202;-48
2021/12/25 06:19:23;;;;;;;1.70;0.73;;;-6.30;99.90;;;;;;5102872;29;20962;-49
2021/12/25 06:21:53;;;;;;;0.57;0.57;;;-6.30;99.90;;;;;;5100478;29;20180;-48
2021/12/25 06:24:26;;;;;;;0.77;0.60;;;-6.30;99.90;;;;;;5127337;29;20200;-48
2021/12/25 06:26:57;;;;;;;0.93;0.93;;;-6.30;99.90;;;;;;5108794;29;20217;-48
2021/12/25 06:29:27;;;;;;;1.53;0.60;;;-6.20;99.90;;;;;;5124294;28;20417;-50
2021/12/25 06:31:58;;;;;;;2.30;1.50;;;-6.20;99.90;;;;;;5123672;29;20465;-50
2021/12/25 06:34:29;;;;;;;1.60;0.77;;;-6.20;99.90;;;;;;5104259;29;20651;-48
2021/12/25 06:36:59;;;;;;;1.70;0.90;;;-6.20;99.90;;;;;;5105378;29;20509;-50
2021/12/25 06:39:31;;;;;;;3.50;0.80;;;-6.20;99.90;;;;;;5125005;28;20190;-49
2021/12/25 06:42:03;;;;;;;0.93;0.93;;;-6.20;99.90;;;;;;5120079;28;20236;-48
2021/12/25 06:44:34;;;;;;;2.00;0.80;;;-6.20;99.90;;;;;;5097755;28;20435;-48
2021/12/25 06:47:05;;;;;;;3.40;0.97;;;-6.10;99.90;;;;;;5124241;28;20465;-48
2021/12/25 06:49:35;;;;;;;1.80;0.73;;;-6.10;99.90;;;;;;5125594;29;20438;-49
2021/12/25 06:52:06;;;;;;;1.13;0.73;;;-6.10;99.90;;;;;;5123434;29;20209;-49
2021/12/25 06:54:37;;;;;;;2.03;1.00;;;-6.10;99.90;;;;;;5116290;28;20281;-50
2021/12/25 06:57:07;;;;;;;0.80;0.73;;;-6.00;99.90;;;;;;5122173;28;20237;-49
2021/12/25 06:59:38;;;;;;;1.17;0.83;;;-6.10;99.90;;;;;;5125213;28;20214;-49
2021/12/25 07:02:08;;;;;;;2.93;0.80;;;-6.10;99.90;;;;;;5102167;29;20313;-51
2021/12/25 07:04:39;;;;;;;1.30;1.23;;;-6.10;99.90;;;;;;5123378;29;20305;-50
2021/12/25 07:07:10;;;;;;;1.03;1.00;;;-6.10;99.90;;;;;;5103131;29;20213;-49
2021/12/25 07:09:40;;;;;;;3.13;1.53;;;-6.10;99.90;;;;;;5122615;28;20581;-49
2021/12/25 07:12:11;;;;;;;1.13;1.13;;;-6.10;99.90;;;;;;5107325;29;20201;-49
2021/12/25 07:14:41;;;;;;;1.23;1.23;;;-6.20;99.90;;;;;;5105898;28;20614;-50
2021/12/25 07:17:12;;;;;;;11.87;1.47;;;-6.10;99.90;;;;;;5121242;28;20221;-48
2021/12/25 07:19:42;;;;;;;2.73;1.03;;;-6.20;99.90;;;;;;5104099;29;20210;-48
2021/12/25 07:22:13;;;;;;;1.57;0.70;;;-6.20;99.90;;;;;;5105826;28;20573;-49
2021/12/25 07:24:47;;;;;;;3.90;0.70;;;-6.20;99.90;;;;;;5106494;29;20190;-49
2021/12/25 07:27:17;;;;;;;1.00;1.00;;;-6.30;99.90;;;;;;5123851;28;20209;-49
2021/12/25 07:29:48;;;;;;;2.50;0.90;;;-6.20;99.90;;;;;;5112105;28;20755;-49
2021/12/25 07:32:19;;;;;;;0.87;0.87;;;-6.20;99.90;;;;;;5117391;28;20215;-48
2021/12/25 07:34:51;;;;;;;1.37;1.10;;;-6.20;99.90;;;;;;5122554;28;20454;-50
2021/12/25 07:37:21;;;;;;;2.10;1.17;;;-6.20;99.90;;;;;;5118236;28;20221;-48
2021/12/25 07:39:52;;;;;;;3.97;1.80;;;-6.10;99.90;;;;;;5122162;28;20434;-50
2021/12/25 07:42:22;;;;;;;1.17;1.03;;;-6.10;99.90;;;;;;5120036;28;20263;-49
2021/12/25 07:44:55;;;;;;;1.73;1.63;;;-6.10;99.90;;;;;;5124104;29;20174;-49
2021/12/25 07:47:26;;;;;;;2.47;1.30;;;-6.10;99.90;;;;;;5115308;28;20289;-48
2021/12/25 07:49:58;;;;;;;2.40;1.67;;;-6.10;99.90;;;;;;5104538;29;20502;-49
2021/12/25 07:52:29;;;;;;;7.20;2.00;;;-6.10;99.90;;;;;;5114923;28;20701;-50
2021/12/25 07:55:00;;;;;;;1.33;1.33;;;-6.10;99.90;;;;;;5112005;28;20552;-47
2021/12/25 07:57:31;;;;;;;1.87;1.77;;;-6.10;99.90;;;;;;5108897;28;20477;-49
2021/12/25 08:00:03;;;;;;;3.00;2.07;;;-6.10;99.90;;;;;;5112933;29;20265;-49
2021/12/25 08:02:34;;;;;;;2.00;1.90;;;-6.00;99.90;;;;;;5116067;28;20688;-49
2021/12/25 08:05:04;;;;;;;1.80;1.80;;;-5.90;99.90;;;;;;5106112;28;20458;-49
2021/12/25 08:07:35;;;;;;;1.80;1.60;;;-5.90;99.90;;;;;;5113355;28;20205;-49
2021/12/25 08:10:14;;;;;;;4.43;1.40;;;-5.80;99.90;;;;;;5112965;28;21211;-51
2021/12/25 08:12:50;;;;;;;5.60;2.47;;;-5.80;99.90;;;;;;5115119;29;20181;-49
2021/12/25 08:15:23;;;;;;;4.63;2.03;;;-5.70;99.90;;;;;;5115304;29;20438;-49
2021/12/25 08:17:58;;;;;;;2.33;2.10;;;-5.70;99.90;;;;;;5106014;29;20470;-49
2021/12/25 08:20:29;;;;;;;2.70;2.50;;;-5.60;99.90;;;;;;5115445;28;20474;-50
2021/12/25 08:23:00;;;;;;;3.53;2.37;;;-5.60;99.90;;;;;;5114105;28;20846;-49
2021/12/25 08:25:30;;;;;;;3.00;2.23;;;-5.50;99.90;;;;;;5119874;29;20434;-49
2021/12/25 08:28:01;;;;;;;4.63;1.97;;;-5.50;99.90;;;;;;5117119;28;20198;-49
2021/12/25 08:30:32;;;;;;;6.30;2.47;;;-5.50;99.90;;;;;;5116102;28;20214;-48
2021/12/25 08:33:03;;;;;;;2.60;1.87;;;-5.40;99.90;;;;;;5112987;28;20193;-51
2021/12/25 08:35:34;;;;;;;2.73;2.53;;;-5.40;99.90;;;;;;5095848;28;20273;-50
2021/12/25 08:38:05;;;;;;;2.17;1.87;;;-5.40;99.90;;;;;;5114692;28;20478;-49
2021/12/25 08:40:35;;;;;;;4.03;2.37;;;-5.40;99.90;;;;;;5105450;29;20445;-50
2021/12/25 08:43:07;;;;;;;2.73;2.40;;;-5.40;99.90;;;;;;5105289;29;20201;-49
2021/12/25 08:45:49;;;;;;;2.57;2.40;;;-5.30;99.90;;;;;;5122396;28;20209;-50
2021/12/25 08:48:23;;;;;;;1.90;1.80;;;-5.30;99.90;;;;;;5125572;28;20519;-48
2021/12/25 08:50:57;;;;;;;2.20;2.10;;;-5.20;99.90;;;;;;5123479;29;20445;-50
2021/12/25 08:53:28;;;;;;;1.70;1.50;;;-5.20;99.90;;;;;;5121675;28;20442;-48
2021/12/25 08:55:59;;;;;;;2.00;1.80;;;-5.10;99.90;;;;;;5102184;28;20429;-49
2021/12/25 08:58:31;;;;;;;2.60;1.30;;;-5.10;99.90;;;;;;5116207;28;20509;-49
2021/12/25 09:01:06;;;;;;;1.87;1.63;;;-5.10;99.90;;;;;;5119415;28;20447;-50
2021/12/25 09:03:37;;;;;;;1.23;1.13;;;-5.00;99.90;;;;;;5105091;29;20819;-48
2021/12/25 09:06:07;;;;;;;3.23;1.70;;;-4.90;99.90;;;;;;5104963;29;20437;-48
2021/12/25 09:08:38;;;;;;;1.33;1.23;;;-4.90;99.90;;;;;;5106294;28;20620;-48
2021/12/25 09:11:08;;;;;;;1.50;1.50;;;-4.80;99.90;;;;;;5122895;28;20240;-49
2021/12/25 09:13:39;;;;;;;1.70;1.17;;;-4.80;99.90;;;;;;5125569;28;20222;-48
2021/12/25 09:16:09;;;;;;;1.10;1.03;;;-4.70;99.90;;;;;;5120780;28;20194;-49
2021/12/25 09:18:40;;;;;;;1.00;1.00;;;-4.70;99.90;;;;;;5123224;28;20219;-49
2021/12/25 09:21:11;;;;;;;1.47;1.30;;;-4.60;99.90;;;;;;5116913;28;20958;-49
2021/12/25 09:23:41;;;;;;;4.57;1.10;;;-4.60;99.90;;;;;;5118702;29;20506;-49
2021/12/25 09:26:13;;;;;;;1.40;1.23;;;-4.60;99.90;;;;;;5124908;28;20198;-49
2021/12/25 09:28:47;;;;;;;2.53;2.33;;;-4.50;99.90;;;;;;5117015;28;20208;-50
2021/12/25 09:31:18;;;;;;;1.93;1.60;;;-4.50;99.90;;;;;;5117670;28;20457;-49
2021/12/25 09:33:49;;;;;;;2.20;1.30;;;-4.40;99.90;;;;;;5116645;28;20561;-50
2021/12/25 09:36:21;;;;;;;3.30;2.10;;;-4.30;99.90;;;;;;5117517;29;20187;-49
2021/12/25 09:38:52;;;;;;;2.00;1.77;;;-4.30;99.90;;;;;;5107708;29;20442;-49
2021/12/25 09:41:22;;;;;;;2.20;2.00;;;-4.20;99.90;;;;;;5117405;28;21062;-51
2021/12/25 09:43:53;;;;;;;2.27;2.10;;;-4.10;99.90;;;;;;5114467;28;20210;-51
2021/12/25 09:46:23;;;;;;;1.60;1.50;;;-4.00;99.90;;;;;;5124029;28;20264;-48
2021/12/25 09:48:54;;;;;;;6.23;2.23;;;-4.00;99.90;;;;;;5122970;28;20184;-48
2021/12/25 09:51:25;;;;;;;2.10;2.00;;;-4.00;99.90;;;;;;5101757;28;20182;-48
2021/12/25 09:54:08;;;;;;;2.60;2.40;;;-3.90;99.90;;;;;;5121172;28;20187;-49
2021/12/25 09:56:41;;;;;;;2.90;1.90;;;-3.80;99.90;;;;;;5119279;28;20194;-48
2021/12/25 09:59:12;;;;;;;2.13;2.03;;;-3.80;99.90;;;;;;5118466;28;20442;-50
2021/12/25 10:01:44;;;;;;;6.97;2.90;;;-3.70;99.90;;;;;;5121050;28;20502;-48
2021/12/25 10:04:38;;;;;;;2.33;1.93;;;-3.60;99.90;;;;;;5121285;28;20217;-48
2021/12/25 10:07:14;;;;;;;1.77;1.50;;;-3.60;99.90;;;;;;5123839;28;20614;-51
2021/12/25 10:09:55;;;;;;;1.80;1.70;;;-3.60;99.90;;;;;;5102009;28;20462;-49
2021/12/25 10:12:35;;;;;;;1.97;1.77;;;-3.50;99.90;;;;;;5118637;28;20442;-49
2021/12/25 10:15:08;;;;;;;4.13;2.97;;;-3.50;99.90;;;;;;5115917;28;20433;-48
2021/12/25 10:17:54;;;;;;;3.80;2.20;;;-3.50;99.90;;;;;;5115644;28;20469;-50
2021/12/25 10:20:28;;;;;;;8.83;2.30;;;-3.40;99.90;;;;;;5114084;29;20437;-49
2021/12/25 10:23:09;;;;;;;1.70;1.60;;;-3.40;99.90;;;;;;5104177;29;20474;-50
2021/12/25 10:25:43;;;;;;;4.17;2.20;;;-3.30;99.90;;;;;;5120112;28;20811;-49
2021/12/25 10:28:22;;;;;;;2.30;1.47;;;-3.30;99.90;;;;;;5106292;29;20464;-48
2021/12/25 10:31:03;;;;;;;2.17;2.07;;;-3.20;99.90;;;;;;5106038;29;20435;-49
2021/12/25 10:33:50;;;;;;;2.97;1.90;;;-3.10;99.90;;;;;;5120664;28;20461;-48
2021/12/25 10:36:30;;;;;;;2.67;2.20;;;-3.00;99.90;;;;;;5120377;28;20782;-49
2021/12/25 10:39:06;;;;;;;2.20;2.00;;;-3.00;99.90;;;;;;5127641;29;20432;-50
2021/12/25 10:41:41;;;;;;;2.03;1.47;;;-2.90;99.90;;;;;;5119345;29;20449;-51
2021/12/25 10:44:23;;;;;;;1.67;1.60;;;-2.80;99.90;;;;;;5101090;29;20809;-50
2021/12/25 10:46:59;;;;;;;2.20;2.10;;;-2.80;99.90;;;;;;5120450;28;20910;-49
2021/12/25 10:49:33;;;;;;;2.23;1.90;;;-2.70;99.90;;;;;;5115857;28;21121;-49
2021/12/25 10:52:22;;;;;;;2.63;2.03;;;-2.70;99.90;;;;;;5120509;28;20430;-51
2021/12/25 10:55:01;;;;;;;15.23;3.00;;;-2.70;99.90;;;;;;5122682;28;20476;-51
2021/12/25 10:57:40;;;;;;;2.00;1.90;;;-2.60;99.90;;;;;;5117125;28;20928;-50
2021/12/25 11:00:20;;;;;;;3.73;1.90;;;-2.70;99.90;;;;;;5117552;28;20753;-48
2021/12/25 11:02:58;;;;;;;4.13;1.60;;;-2.60;99.90;;;;;;5113952;28;21052;-49
2021/12/25 11:05:37;;;;;;;2.27;1.50;;;-2.60;99.90;;;;;;5119791;28;20445;-49
2021/12/25 11:08:16;;;;;;;8.13;3.27;;;-2.60;99.90;;;;;;5119969;28;20480;-49
2021/12/25 11:10:56;;;;;;;4.50;2.50;;;-2.60;99.90;;;;;;5122050;28;20445;-48
2021/12/25 11:13:36;;;;;;;2.53;1.37;;;-2.50;99.90;;;;;;5117493;28;20879;-49
2021/12/25 11:16:30;;;;;;;4.00;1.70;;;-2.40;99.90;;;;;;5117439;28;20521;-48
2021/12/25 11:19:10;;;;;;;1.63;1.53;;;-2.40;99.90;;;;;;5099172;28;20535;-49
2021/12/25 11:21:44;;;;;;;3.27;1.90;;;-2.30;99.90;;;;;;5101232;28;20529;-49
2021/12/25 11:24:20;;;;;;;1.80;1.70;;;-2.30;99.90;;;;;;5118655;28;20481;-49
2021/12/25 11:26:58;;;;;;;4.50;1.77;;;-2.30;99.90;;;;;;5120240;28;20529;-49
2021/12/25 11:29:30;;;;;;;1.60;1.50;;;-2.20;99.90;;;;;;5119354;28;20453;-48
2021/12/25 11:32:03;;;;;;;2.10;1.50;;;-2.20;99.90;;;;;;5120010;28;20436;-48
2021/12/25 11:34:34;;;;;;;1.00;1.00;;;-2.10;99.90;;;;;;5096159;28;21149;-50
2021/12/25 11:37:05;;;;;;;1.60;1.50;;;-2.10;99.90;;;;;;5101985;28;20473;-50
2021/12/25 11:39:37;;;;;;;2.80;1.53;;;-2.00;99.90;;;;;;5117012;29;20461;-49
2021/12/25 11:42:10;;;;;;;1.60;1.50;;;-2.00;99.90;;;;;;5111736;28;20455;-49
2021/12/25 11:44:45;;;;;;;7.53;2.10;;;-1.90;99.90;;;;;;5113203;28;21001;-50
2021/12/25 11:47:40;;;;;;;1.63;1.53;;;-1.90;99.90;;;;;;5102848;28;20560;-49
2021/12/25 11:50:34;;;;;;;1.80;1.50;;;-1.90;99.90;;;;;;5118391;28;20462;-50
2021/12/25 11:53:20;;;;;;;2.93;1.40;;;-1.80;99.90;;;;;;5115122;28;20452;-49
2021/12/25 11:58:53;;;;;;;1.67;1.57;;;-1.70;99.90;;;;;;5113760;28;20788;-50
2021/12/25 12:01:39;;;;;;;1.50;1.40;;;-1.70;99.90;;;;;;5081340;28;20469;-51
2021/12/25 12:04:09;;;;;;;1.47;1.37;;;-1.80;99.90;;;;;;5113474;28;20505;-49
2021/12/25 12:06:46;;;;;;;1.80;1.70;;;-1.80;99.90;;;;;;5116410;29;20485;-50
2021/12/25 12:09:44;;;;;;;6.90;2.13;;;-1.70;99.90;;;;;;5117389;28;20181;-49
2021/12/25 12:12:22;;;;;;;1.20;1.20;;;-1.80;99.90;;;;;;5094325;28;20488;-49
2021/12/25 12:15:10;;;;;;;1.33;1.33;;;-1.70;99.90;;;;;;5090684;29;20533;-50
2021/12/25 12:17:43;;;;;;;1.67;1.57;;;-1.70;99.90;;;;;;5117490;28;20513;-49
2021/12/25 12:20:38;;;;;;;1.77;1.30;;;-1.70;99.90;;;;;;5118396;28;20547;-48
2021/12/25 12:26:13;;;;;;;1.20;1.13;;;-1.70;99.90;;;;;;5114478;28;20442;-51
2021/12/25 12:28:52;;;;;;;2.80;1.70;;;-1.70;99.90;;;;;;5121034;28;20464;-50
2021/12/25 12:31:42;;;;;;;1.70;0.70;;;-1.70;99.90;;;;;;5099350;28;20470;-49
2021/12/25 12:34:36;;;;;;;0.87;0.87;;;-1.80;99.90;;;;;;5113777;28;20954;-49
2021/12/25 12:37:16;;;;;;;1.90;1.10;;;-1.90;98.40;;;;;;5117080;28;20575;-49
2021/12/25 12:39:57;;;;;;;1.97;0.87;;;-1.90;98.30;;;;;;5118768;29;20449;-51
2021/12/25 12:45:21;;;;;;;2.10;1.30;;;-1.90;99.90;;;;;;5114085;28;20509;-49
2021/12/25 12:48:10;;;;;;;2.70;1.17;;;-1.90;99.90;;;;;;5119487;28;20458;-49
2021/12/25 12:50:44;;;;;;;4.00;1.07;;;-2.00;98.60;;;;;;5113810;28;20469;-48
2021/12/25 12:53:15;;;;;;;1.00;1.00;;;-1.90;98.60;;;;;;5115409;28;20545;-48
2021/12/25 12:55:49;;;;;;;0.80;0.80;;;-1.80;99.90;;;;;;5108626;28;20787;-50
2021/12/25 12:58:25;;;;;;;8.57;0.93;;;-1.80;99.90;;;;;;5116179;28;20454;-49
2021/12/25 13:01:14;;;;;;;1.47;1.23;;;-1.80;99.90;;;;;;5091458;28;20484;-49
2021/12/25 13:03:45;;;;;;;1.37;0.93;;;-1.90;99.00;;;;;;5113804;28;20476;-48
2021/12/25 13:06:15;;;;;;;5.53;0.87;;;-2.00;97.90;;;;;;5113964;28;20438;-49
2021/12/25 13:08:47;;;;;;;4.37;1.37;;;-2.00;96.90;;;;;;5117568;28;20673;-51
2021/12/25 13:11:24;;;;;;;1.33;1.20;;;-2.10;96.90;;;;;;5101326;28;20273;-50
2021/12/25 13:14:00;;;;;;;3.13;1.00;;;-2.10;98.90;;;;;;5110858;28;20434;-49
2021/12/25 13:16:37;;;;;;;1.50;0.87;;;-2.20;99.60;;;;;;5096684;28;20533;-50
2021/12/25 13:19:08;;;;;;;2.30;0.90;;;-2.20;99.90;;;;;;5101277;28;20452;-49
2021/12/25 13:21:38;;;;;;;2.77;1.17;;;-2.20;99.90;;;;;;5115040;28;20437;-49
2021/12/25 13:24:14;;;;;;;2.03;1.07;;;-2.30;99.90;;;;;;5118550;28;20221;-49
2021/12/25 13:26:48;;;;;;;1.27;1.17;;;-2.30;99.90;;;;;;5119758;28;20677;-49
2021/12/25 13:29:22;;;;;;;1.93;0.90;;;-2.30;99.90;;;;;;5122505;28;20953;-51
2021/12/25 13:31:52;;;;;;;2.47;0.90;;;-2.30;99.90;;;;;;5118174;28;20440;-51
2021/12/25 13:34:23;;;;;;;3.03;1.37;;;-2.40;99.90;;;;;;5096655;28;20800;-51
2021/12/25 13:36:56;;;;;;;1.87;1.73;;;-2.40;99.90;;;;;;5115692;28;20241;-49
2021/12/25 13:39:32;;;;;;;1.47;0.73;;;-2.50;99.90;;;;;;5115199;23;20269;-51
2021/12/25 13:42:12;;;;;;;1.90;1.20;;;-2.50;99.90;;;;;;5100958;29;21516;-50
2021/12/25 13:44:45;;;;;;;1.20;1.13;;;-2.50;99.90;;;;;;5080554;29;20438;-50
2021/12/25 13:47:23;;;;;;;1.43;1.30;;;-2.60;99.90;;;;;;5103226;29;20438;-52
2021/12/25 13:50:02;;;;;;;8.87;1.87;;;-2.60;99.90;;;;;;5079888;29;20466;-50
2021/12/25 13:52:33;;;;;;;6.00;2.07;;;-2.60;99.90;;;;;;5082260;29;20438;-53
2021/12/25 13:55:18;;;;;;;2.93;1.93;;;-2.60;99.90;;;;;;5079291;29;20448;-50
2021/12/25 13:57:51;;;;;;;4.57;2.80;;;-2.60;99.90;;;;;;5068417;29;20522;-51
2021/12/25 14:00:34;;;;;;;5.47;2.40;;;-2.70;99.90;;;;;;5072562;29;20442;-50
2021/12/25 14:03:09;;;;;;;3.33;2.47;;;-2.70;99.90;;;;;;5078460;29;20483;-53
2021/12/25 14:05:43;;;;;;;2.37;2.17;;;-2.80;99.90;;;;;;5078716;29;21072;-50
2021/12/25 14:08:17;;;;;;;1.50;1.50;;;-2.80;99.90;;;;;;5064353;29;20464;-51
2021/12/25 14:10:48;;;;;;;2.30;1.63;;;-2.90;99.90;;;;;;5078950;29;20492;-49
2021/12/25 14:13:20;;;;;;;1.80;1.70;;;-2.90;99.90;;;;;;5068015;29;20463;-50
2021/12/25 14:15:54;;;;;;;4.30;2.20;;;-2.90;99.90;;;;;;5080463;29;20196;-50
2021/12/25 14:18:35;;;;;;;2.63;2.00;;;-2.90;99.90;;;;;;5077504;29;20475;-52
2021/12/25 14:21:24;;;;;;;5.20;2.03;;;-2.90;99.90;;;;;;5077348;29;20459;-51
2021/12/25 14:24:05;;;;;;;2.33;1.60;;;-3.00;99.90;;;;;;5078842;29;20511;-52
2021/12/25 14:26:36;;;;;;;4.87;2.03;;;-3.00;99.90;;;;;;5080898;29;20947;-52